Archival Weather

Fukuoka

Fukuoka, Japan (RJFF)

Report from: Tuesday, August 16, 2022 12:00 AM JST
Current time: Sunday, November 27, 2022 5:06 PM JST

Current weather
Weather history
Weather forecast

Temperature28.0°C (82.4°F)
Heat index33.5°C (92.3°F)
Dew point26.0°C (78.8°F)
Winds 13 kts (6.7 m/s, 15 mph) South-Southeast (150°)
Visibility6.2 mi. (10 km)
Clouds Few clouds 3,600 ft. (1,097 m)
Altimeter29.71 in.Hg (1006 mB)
Relative humidity89 %
Density altitude2,188 ft. (667 m)
Remarks Fully automated report
No significant changes expected in the next two hours
Flight conditions Visual Meteorological Conditions
Raw dataRJFF 151500Z AUTO 15013KT 9999 FEW036 28/26 Q1006 NOSIG
An error has occurred. This application may no longer respond until reloaded. Reload 🗙